sensor_id;sensor_type;location;lat;lon;timestamp;noise_LAeq;noise_LA_min;noise_LA_max;noise_LA01;noise_LA95
43385;Laerm;28988;48.042;7.584;2023-07-24T00:02:15;84.22;-57.68;94.37;;
43385;Laerm;28988;48.042;7.584;2023-07-24T00:04:41;84.22;-33.10;94.82;;
43385;Laerm;28988;48.042;7.584;2023-07-24T00:07:06;84.21;-57.68;94.15;;
43385;Laerm;28988;48.042;7.584;2023-07-24T00:09:31;84.22;-28.29;94.26;;
43385;Laerm;28988;48.042;7.584;2023-07-24T00:11:57;84.22;-28.29;94.33;;
43385;Laerm;28988;48.042;7.584;2023-07-24T00:14:22;84.22;-68.14;94.52;;
43385;Laerm;28988;48.042;7.584;2023-07-24T00:16:47;84.21;-57.68;94.16;;
43385;Laerm;28988;48.042;7.584;2023-07-24T00:19:12;84.23;-23.73;94.46;;
43385;Laerm;28988;48.042;7.584;2023-07-24T00:21:37;84.23;-28.29;94.40;;
43385;Laerm;28988;48.042;7.584;2023-07-24T00:24:03;84.23;-57.68;94.42;;
43385;Laerm;28988;48.042;7.584;2023-07-24T00:26:28;84.23;-57.68;94.16;;
43385;Laerm;28988;48.042;7.584;2023-07-24T00:28:53;84.22;-57.68;94.53;;
43385;Laerm;28988;48.042;7.584;2023-07-24T00:31:18;84.20;-57.68;94.28;;
43385;Laerm;28988;48.042;7.584;2023-07-24T00:33:43;84.23;-57.68;94.53;;
43385;Laerm;28988;48.042;7.584;2023-07-24T00:36:08;84.23;-20.54;94.82;;
43385;Laerm;28988;48.042;7.584;2023-07-24T00:38:34;84.23;-33.10;94.77;;
43385;Laerm;28988;48.042;7.584;2023-07-24T00:40:59;84.23;-33.10;94.33;;
43385;Laerm;28988;48.042;7.584;2023-07-24T00:43:24;84.22;-23.73;94.71;;
43385;Laerm;28988;48.042;7.584;2023-07-24T00:45:49;84.22;-57.68;94.93;;
43385;Laerm;28988;48.042;7.584;2023-07-24T00:48:15;84.24;-57.68;94.55;;
43385;Laerm;28988;48.042;7.584;2023-07-24T00:50:41;84.23;-28.29;94.59;;
43385;Laerm;28988;48.042;7.584;2023-07-24T00:53:07;84.22;-23.73;94.15;;
43385;Laerm;28988;48.042;7.584;2023-07-24T00:55:32;84.22;-57.68;94.41;;
43385;Laerm;28988;48.042;7.584;2023-07-24T00:57:57;84.24;-23.73;94.30;;
43385;Laerm;28988;48.042;7.584;2023-07-24T01:00:23;84.21;-23.73;95.43;;
43385;Laerm;28988;48.042;7.584;2023-07-24T01:02:48;84.23;-33.10;94.16;;
43385;Laerm;28988;48.042;7.584;2023-07-24T01:05:13;84.22;-23.73;94.61;;
43385;Laerm;28988;48.042;7.584;2023-07-24T01:07:40;84.23;-22.86;94.12;;
43385;Laerm;28988;48.042;7.584;2023-07-24T01:10:05;84.22;-22.40;94.54;;
43385;Laerm;28988;48.042;7.584;2023-07-24T01:12:35;84.22;-23.73;94.02;;
43385;Laerm;28988;48.042;7.584;2023-07-24T01:15:08;84.22;-34.16;94.94;;
43385;Laerm;28988;48.042;7.584;2023-07-24T01:17:34;84.21;-33.87;94.27;;
43385;Laerm;28988;48.042;7.584;2023-07-24T01:20:00;84.24;-33.10;94.50;;
43385;Laerm;28988;48.042;7.584;2023-07-24T01:27:27;84.23;-28.29;94.71;;
43385;Laerm;28988;48.042;7.584;2023-07-24T01:29:52;84.24;-57.68;94.54;;
43385;Laerm;28988;48.042;7.584;2023-07-24T01:32:18;84.23;-36.67;94.55;;
43385;Laerm;28988;48.042;7.584;2023-07-24T01:34:43;84.22;-24.34;94.41;;
43385;Laerm;28988;48.042;7.584;2023-07-24T01:37:09;84.23;-27.41;95.20;;
43385;Laerm;28988;48.042;7.584;2023-07-24T01:39:35;84.22;-23.73;94.29;;
43385;Laerm;28988;48.042;7.584;2023-07-24T01:42:01;84.23;-23.73;94.53;;
43385;Laerm;28988;48.042;7.584;2023-07-24T01:44:27;84.22;-32.90;94.92;;
43385;Laerm;28988;48.042;7.584;2023-07-24T01:46:52;84.21;-22.63;94.44;;
43385;Laerm;28988;48.042;7.584;2023-07-24T01:49:17;84.23;-35.70;94.39;;
43385;Laerm;28988;48.042;7.584;2023-07-24T01:51:42;84.23;-57.68;94.39;;
43385;Laerm;28988;48.042;7.584;2023-07-24T01:54:07;84.22;-23.73;94.40;;
43385;Laerm;28988;48.042;7.584;2023-07-24T01:56:35;84.23;-33.10;94.70;;
43385;Laerm;28988;48.042;7.584;2023-07-24T01:59:00;84.21;-23.73;94.75;;
43385;Laerm;28988;48.042;7.584;2023-07-24T02:01:26;84.23;-24.29;94.52;;
43385;Laerm;28988;48.042;7.584;2023-07-24T02:03:51;84.23;-57.68;93.70;;
43385;Laerm;28988;48.042;7.584;2023-07-24T02:06:16;84.22;-23.73;94.80;;
43385;Laerm;28988;48.042;7.584;2023-07-24T02:08:41;84.23;-31.22;94.55;;
43385;Laerm;28988;48.042;7.584;2023-07-24T02:11:12;84.23;-57.68;94.43;;
43385;Laerm;28988;48.042;7.584;2023-07-24T02:13:37;84.24;-28.29;94.31;;
43385;Laerm;28988;48.042;7.584;2023-07-24T02:16:02;84.23;-57.68;94.82;;
43385;Laerm;28988;48.042;7.584;2023-07-24T02:18:27;84.24;-23.73;94.56;;
43385;Laerm;28988;48.042;7.584;2023-07-24T02:20:52;84.25;-57.68;95.01;;
43385;Laerm;28988;48.042;7.584;2023-07-24T02:23:18;84.25;-57.68;94.97;;
43385;Laerm;28988;48.042;7.584;2023-07-24T02:25:43;84.25;-30.70;94.77;;
43385;Laerm;28988;48.042;7.584;2023-07-24T02:28:08;84.25;-57.68;94.74;;
43385;Laerm;28988;48.042;7.584;2023-07-24T02:30:37;84.24;-26.96;94.92;;
43385;Laerm;28988;48.042;7.584;2023-07-24T02:33:02;84.23;-28.29;94.57;;
43385;Laerm;28988;48.042;7.584;2023-07-24T02:35:27;84.24;-35.96;94.66;;
43385;Laerm;28988;48.042;7.584;2023-07-24T02:37:52;84.25;-57.68;94.77;;
43385;Laerm;28988;48.042;7.584;2023-07-24T02:40:17;84.25;-23.73;95.02;;
43385;Laerm;28988;48.042;7.584;2023-07-24T02:42:43;84.24;-31.19;94.80;;
43385;Laerm;28988;48.042;7.584;2023-07-24T02:45:08;84.26;-57.68;94.91;;
43385;Laerm;28988;48.042;7.584;2023-07-24T02:47:35;84.25;-57.68;94.78;;
43385;Laerm;28988;48.042;7.584;2023-07-24T02:50:01;84.24;-23.73;94.91;;
43385;Laerm;28988;48.042;7.584;2023-07-24T02:52:26;84.25;-57.68;94.48;;
43385;Laerm;28988;48.042;7.584;2023-07-24T02:54:51;84.27;-23.73;94.83;;
43385;Laerm;28988;48.042;7.584;2023-07-24T02:57:16;84.26;-57.68;94.30;;
43385;Laerm;28988;48.042;7.584;2023-07-24T02:59:41;84.24;-57.68;94.53;;
43385;Laerm;28988;48.042;7.584;2023-07-24T03:02:07;84.25;-33.10;94.69;;
43385;Laerm;28988;48.042;7.584;2023-07-24T03:04:32;84.25;-22.63;94.28;;
43385;Laerm;28988;48.042;7.584;2023-07-24T03:06:57;84.25;-43.46;94.28;;
43385;Laerm;28988;48.042;7.584;2023-07-24T03:09:22;84.25;-47.82;95.31;;
43385;Laerm;28988;48.042;7.584;2023-07-24T03:11:47;84.24;-28.29;94.62;;
43385;Laerm;28988;48.042;7.584;2023-07-24T03:14:12;84.25;-57.68;94.61;;
43385;Laerm;28988;48.042;7.584;2023-07-24T03:16:38;84.25;-23.73;94.94;;
43385;Laerm;28988;48.042;7.584;2023-07-24T03:19:03;84.24;-28.29;94.26;;
43385;Laerm;28988;48.042;7.584;2023-07-24T03:21:28;84.23;-57.68;94.58;;
43385;Laerm;28988;48.042;7.584;2023-07-24T03:23:53;84.23;-28.29;94.36;;
43385;Laerm;28988;48.042;7.584;2023-07-24T03:26:18;84.24;-23.73;94.79;;
43385;Laerm;28988;48.042;7.584;2023-07-24T03:28:44;84.23;-33.10;94.41;;
43385;Laerm;28988;48.042;7.584;2023-07-24T03:31:09;84.25;-28.29;94.42;;
43385;Laerm;28988;48.042;7.584;2023-07-24T03:33:34;84.25;-23.73;94.91;;
43385;Laerm;28988;48.042;7.584;2023-07-24T03:35:59;84.24;-23.73;94.29;;
43385;Laerm;28988;48.042;7.584;2023-07-24T03:38:24;84.25;-57.68;95.07;;
43385;Laerm;28988;48.042;7.584;2023-07-24T03:40:49;84.24;-28.29;94.83;;
43385;Laerm;28988;48.042;7.584;2023-07-24T03:43:15;84.24;-23.73;94.29;;
43385;Laerm;28988;48.042;7.584;2023-07-24T03:45:40;84.25;-28.29;94.65;;
43385;Laerm;28988;48.042;7.584;2023-07-24T03:48:05;84.26;-57.68;94.49;;
43385;Laerm;28988;48.042;7.584;2023-07-24T03:50:30;84.26;-20.54;94.82;;
43385;Laerm;28988;48.042;7.584;2023-07-24T03:52:55;84.24;-39.67;95.43;;
43385;Laerm;28988;48.042;7.584;2023-07-24T03:55:20;84.24;-28.29;95.12;;
43385;Laerm;28988;48.042;7.584;2023-07-24T03:57:46;84.24;-23.73;95.25;;
43385;Laerm;28988;48.042;7.584;2023-07-24T04:00:11;84.25;-28.29;94.30;;
43385;Laerm;28988;48.042;7.584;2023-07-24T04:02:36;84.24;-28.29;94.67;;
43385;Laerm;28988;48.042;7.584;2023-07-24T04:05:02;84.24;-57.68;94.73;;
43385;Laerm;28988;48.042;7.584;2023-07-24T04:07:27;84.24;-28.29;94.55;;
43385;Laerm;28988;48.042;7.584;2023-07-24T04:09:53;84.24;-34.16;94.15;;
43385;Laerm;28988;48.042;7.584;2023-07-24T04:12:18;84.24;-26.09;94.81;;
43385;Laerm;28988;48.042;7.584;2023-07-24T04:14:43;84.24;-33.10;94.99;;
43385;Laerm;28988;48.042;7.584;2023-07-24T04:17:08;84.26;-57.68;94.88;;
43385;Laerm;28988;48.042;7.584;2023-07-24T04:19:33;84.25;-57.68;94.78;;
43385;Laerm;28988;48.042;7.584;2023-07-24T04:21:58;84.25;-20.54;94.70;;
43385;Laerm;28988;48.042;7.584;2023-07-24T04:24:24;84.24;-57.68;94.54;;
43385;Laerm;28988;48.042;7.584;2023-07-24T04:26:49;84.26;-57.68;94.41;;
43385;Laerm;28988;48.042;7.584;2023-07-24T04:29:14;84.26;-57.68;94.49;;
43385;Laerm;28988;48.042;7.584;2023-07-24T04:31:39;84.25;-57.68;94.70;;
43385;Laerm;28988;48.042;7.584;2023-07-24T04:34:04;84.26;-23.73;95.04;;
43385;Laerm;28988;48.042;7.584;2023-07-24T04:36:29;84.23;-57.68;94.36;;
43385;Laerm;28988;48.042;7.584;2023-07-24T04:38:54;84.24;-23.73;94.25;;
43385;Laerm;28988;48.042;7.584;2023-07-24T04:41:20;84.25;-57.68;95.09;;
43385;Laerm;28988;48.042;7.584;2023-07-24T04:43:45;84.25;-26.63;95.35;;
43385;Laerm;28988;48.042;7.584;2023-07-24T04:46:10;84.26;-57.68;94.83;;
43385;Laerm;28988;48.042;7.584;2023-07-24T04:48:35;84.21;-23.73;94.79;;
43385;Laerm;28988;48.042;7.584;2023-07-24T04:51:01;84.23;-23.73;94.57;;
43385;Laerm;28988;48.042;7.584;2023-07-24T04:53:26;84.23;-34.16;94.36;;
43385;Laerm;28988;48.042;7.584;2023-07-24T04:55:52;84.22;-23.85;94.77;;
43385;Laerm;28988;48.042;7.584;2023-07-24T04:58:17;84.24;-57.68;94.55;;
43385;Laerm;28988;48.042;7.584;2023-07-24T05:00:43;84.24;-23.73;95.18;;
43385;Laerm;28988;48.042;7.584;2023-07-24T05:03:08;84.24;-57.68;94.98;;
43385;Laerm;28988;48.042;7.584;2023-07-24T05:05:36;84.26;-34.16;94.44;;
43385;Laerm;28988;48.042;7.584;2023-07-24T05:08:01;84.23;-24.67;94.46;;
43385;Laerm;28988;48.042;7.584;2023-07-24T05:10:26;84.25;-22.63;94.78;;
43385;Laerm;28988;48.042;7.584;2023-07-24T05:12:51;84.24;-57.68;94.28;;
43385;Laerm;28988;48.042;7.584;2023-07-24T05:15:17;84.23;-20.54;94.29;;
43385;Laerm;28988;48.042;7.584;2023-07-24T05:17:42;84.23;-57.68;94.22;;
43385;Laerm;28988;48.042;7.584;2023-07-24T05:20:08;84.22;-57.68;94.14;;
43385;Laerm;28988;48.042;7.584;2023-07-24T05:22:33;84.23;-52.17;94.15;;
43385;Laerm;28988;48.042;7.584;2023-07-24T05:24:58;84.22;-23.73;94.54;;
43385;Laerm;28988;48.042;7.584;2023-07-24T05:27:23;84.21;-34.16;94.15;;
43385;Laerm;28988;48.042;7.584;2023-07-24T05:29:49;84.21;-28.29;94.15;;
43385;Laerm;28988;48.042;7.584;2023-07-24T05:32:14;84.22;-57.68;94.32;;
43385;Laerm;28988;48.042;7.584;2023-07-24T05:34:39;84.20;-57.68;93.69;;
43385;Laerm;28988;48.042;7.584;2023-07-24T05:37:04;84.20;-57.68;93.69;;
43385;Laerm;28988;48.042;7.584;2023-07-24T05:39:30;84.20;-28.29;94.63;;
43385;Laerm;28988;48.042;7.584;2023-07-24T05:41:55;84.20;-57.68;93.99;;
43385;Laerm;28988;48.042;7.584;2023-07-24T05:44:20;84.19;-23.73;93.97;;
43385;Laerm;28988;48.042;7.584;2023-07-24T05:46:45;84.20;-57.68;93.82;;
43385;Laerm;28988;48.042;7.584;2023-07-24T05:49:11;84.19;-39.66;94.42;;
43385;Laerm;28988;48.042;7.584;2023-07-24T05:51:36;84.19;-23.73;93.71;;
43385;Laerm;28988;48.042;7.584;2023-07-24T05:54:01;84.19;-23.73;93.96;;
43385;Laerm;28988;48.042;7.584;2023-07-24T05:56:26;84.18;-29.45;94.12;;
43385;Laerm;28988;48.042;7.584;2023-07-24T05:58:51;84.18;-28.29;94.27;;
43385;Laerm;28988;48.042;7.584;2023-07-24T06:01:16;84.19;-28.29;94.28;;
43385;Laerm;28988;48.042;7.584;2023-07-24T06:03:42;84.18;-23.73;94.14;;
43385;Laerm;28988;48.042;7.584;2023-07-24T06:06:07;84.18;-57.68;93.79;;
43385;Laerm;28988;48.042;7.584;2023-07-24T06:08:32;84.18;-34.16;93.99;;
43385;Laerm;28988;48.042;7.584;2023-07-24T06:10:57;84.19;-28.29;94.07;;
43385;Laerm;28988;48.042;7.584;2023-07-24T06:13:23;84.18;-28.29;93.53;;
43385;Laerm;28988;48.042;7.584;2023-07-24T06:15:48;84.18;-57.68;93.99;;
43385;Laerm;28988;48.042;7.584;2023-07-24T06:18:14;84.16;-23.73;93.63;;
43385;Laerm;28988;48.042;7.584;2023-07-24T06:20:39;84.18;-23.73;94.19;;
43385;Laerm;28988;48.042;7.584;2023-07-24T06:23:04;84.17;-23.73;93.81;;
43385;Laerm;28988;48.042;7.584;2023-07-24T06:25:29;84.19;-28.29;93.64;;
43385;Laerm;28988;48.042;7.584;2023-07-24T06:27:55;84.18;-45.84;94.53;;
43385;Laerm;28988;48.042;7.584;2023-07-24T06:30:20;84.18;-23.73;94.31;;
43385;Laerm;28988;48.042;7.584;2023-07-24T06:32:46;84.18;-23.73;93.82;;
43385;Laerm;28988;48.042;7.584;2023-07-24T06:35:11;84.18;-57.68;93.99;;
43385;Laerm;28988;48.042;7.584;2023-07-24T06:37:36;84.17;-33.10;93.22;;
43385;Laerm;28988;48.042;7.584;2023-07-24T06:40:01;84.20;-22.11;93.76;;
43385;Laerm;28988;48.042;7.584;2023-07-24T06:42:27;84.13;-40.41;93.08;;
43385;Laerm;28988;48.042;7.584;2023-07-24T06:44:52;84.13;-33.10;93.20;;
43385;Laerm;28988;48.042;7.584;2023-07-24T06:47:17;84.13;-32.00;93.50;;
43385;Laerm;28988;48.042;7.584;2023-07-24T06:49:43;84.09;-30.64;93.43;;
43385;Laerm;28988;48.042;7.584;2023-07-24T06:52:08;84.00;-40.27;94.54;;
43385;Laerm;28988;48.042;7.584;2023-07-24T06:54:33;85.99;-54.07;97.11;;
43385;Laerm;28988;48.042;7.584;2023-07-24T06:56:58;89.57;-21.74;96.20;;
43385;Laerm;28988;48.042;7.584;2023-07-24T06:59:23;89.67;-39.23;96.41;;
43385;Laerm;28988;48.042;7.584;2023-07-24T07:01:48;88.26;-63.01;96.82;;
43385;Laerm;28988;48.042;7.584;2023-07-24T07:04:14;85.02;-55.81;96.07;;
43385;Laerm;28988;48.042;7.584;2023-07-24T07:06:39;84.74;-30.54;95.97;;
43385;Laerm;28988;48.042;7.584;2023-07-24T07:09:04;84.84;-51.44;95.14;;
43385;Laerm;28988;48.042;7.584;2023-07-24T07:11:30;86.62;-38.35;97.87;;
43385;Laerm;28988;48.042;7.584;2023-07-24T07:13:55;86.54;-61.99;97.23;;
43385;Laerm;28988;48.042;7.584;2023-07-24T07:16:20;87.07;-32.48;97.75;;
43385;Laerm;28988;48.042;7.584;2023-07-24T07:18:46;90.37;-20.41;98.09;;
43385;Laerm;28988;48.042;7.584;2023-07-24T07:21:11;89.02;-37.35;98.28;;
43385;Laerm;28988;48.042;7.584;2023-07-24T07:23:36;84.76;-41.67;96.54;;
43385;Laerm;28988;48.042;7.584;2023-07-24T07:26:01;84.15;-37.47;94.53;;
43385;Laerm;28988;48.042;7.584;2023-07-24T07:28:27;84.15;-33.10;93.79;;
43385;Laerm;28988;48.042;7.584;2023-07-24T07:30:53;84.14;-27.23;93.77;;
43385;Laerm;28988;48.042;7.584;2023-07-24T07:33:18;84.13;-33.10;93.03;;
43385;Laerm;28988;48.042;7.584;2023-07-24T07:35:46;84.13;-20.71;93.18;;
43385;Laerm;28988;48.042;7.584;2023-07-24T07:38:11;84.14;-31.69;93.58;;
43385;Laerm;28988;48.042;7.584;2023-07-24T07:40:37;84.14;-31.55;93.66;;
43385;Laerm;28988;48.042;7.584;2023-07-24T07:43:02;84.13;-33.10;93.49;;
43385;Laerm;28988;48.042;7.584;2023-07-24T07:45:27;84.13;-21.61;93.66;;
43385;Laerm;28988;48.042;7.584;2023-07-24T07:47:52;84.15;-57.68;93.68;;
43385;Laerm;28988;48.042;7.584;2023-07-24T07:50:18;84.16;-57.68;93.43;;
43385;Laerm;28988;48.042;7.584;2023-07-24T07:52:43;84.16;-57.68;93.96;;
43385;Laerm;28988;48.042;7.584;2023-07-24T07:55:09;84.20;-28.29;93.96;;
43385;Laerm;28988;48.042;7.584;2023-07-24T07:57:34;84.22;-57.68;94.92;;
43385;Laerm;28988;48.042;7.584;2023-07-24T08:00:00;84.27;-28.29;94.84;;
43385;Laerm;28988;48.042;7.584;2023-07-24T08:02:25;84.27;-28.29;95.49;;
43385;Laerm;28988;48.042;7.584;2023-07-24T08:04:51;84.27;-33.10;94.80;;
43385;Laerm;28988;48.042;7.584;2023-07-24T08:07:16;84.27;-20.54;94.57;;
43385;Laerm;28988;48.042;7.584;2023-07-24T08:09:41;84.27;-29.45;95.18;;
43385;Laerm;28988;48.042;7.584;2023-07-24T08:12:06;84.27;-20.54;95.44;;
43385;Laerm;28988;48.042;7.584;2023-07-24T08:14:32;84.23;-57.68;94.56;;
43385;Laerm;28988;48.042;7.584;2023-07-24T08:16:57;84.20;-57.68;94.16;;
43385;Laerm;28988;48.042;7.584;2023-07-24T08:19:22;84.21;-57.68;95.19;;
43385;Laerm;28988;48.042;7.584;2023-07-24T08:21:47;84.25;-33.10;94.46;;
43385;Laerm;28988;48.042;7.584;2023-07-24T08:24:12;84.25;-57.68;94.44;;
43385;Laerm;28988;48.042;7.584;2023-07-24T08:26:38;84.27;-57.68;94.76;;
43385;Laerm;28988;48.042;7.584;2023-07-24T08:29:03;84.27;-57.68;94.70;;
43385;Laerm;28988;48.042;7.584;2023-07-24T08:31:29;84.28;-33.10;95.05;;
43385;Laerm;28988;48.042;7.584;2023-07-24T08:33:54;84.29;-57.68;95.05;;
43385;Laerm;28988;48.042;7.584;2023-07-24T08:36:19;84.28;-33.10;94.42;;
43385;Laerm;28988;48.042;7.584;2023-07-24T08:38:44;84.28;-23.73;94.79;;
43385;Laerm;28988;48.042;7.584;2023-07-24T08:41:10;84.27;-27.54;94.54;;
43385;Laerm;28988;48.042;7.584;2023-07-24T08:43:36;84.28;-33.10;94.82;;
43385;Laerm;28988;48.042;7.584;2023-07-24T08:46:02;84.28;-23.73;94.94;;
43385;Laerm;28988;48.042;7.584;2023-07-24T08:48:35;84.27;-57.68;94.94;;
43385;Laerm;28988;48.042;7.584;2023-07-24T08:51:04;84.26;-23.73;95.21;;
43385;Laerm;28988;48.042;7.584;2023-07-24T08:53:30;84.27;-23.73;94.89;;
43385;Laerm;28988;48.042;7.584;2023-07-24T08:55:56;84.26;-33.10;95.12;;
43385;Laerm;28988;48.042;7.584;2023-07-24T08:58:21;84.28;-40.41;95.19;;
43385;Laerm;28988;48.042;7.584;2023-07-24T09:00:46;84.25;-57.68;94.98;;
43385;Laerm;28988;48.042;7.584;2023-07-24T09:03:12;84.22;-57.68;94.92;;
43385;Laerm;28988;48.042;7.584;2023-07-24T09:05:37;84.23;-33.10;94.11;;
43385;Laerm;28988;48.042;7.584;2023-07-24T09:08:02;84.25;-57.68;95.59;;
43385;Laerm;28988;48.042;7.584;2023-07-24T09:10:27;84.18;-57.68;93.86;;
43385;Laerm;28988;48.042;7.584;2023-07-24T09:12:53;84.24;-33.10;94.01;;
43385;Laerm;28988;48.042;7.584;2023-07-24T09:15:19;84.20;-24.68;94.66;;
43385;Laerm;28988;48.042;7.584;2023-07-24T09:17:50;84.15;-24.69;93.49;;
43385;Laerm;28988;48.042;7.584;2023-07-24T09:20:16;84.18;-33.25;95.75;;
43385;Laerm;28988;48.042;7.584;2023-07-24T09:22:51;84.14;-22.68;93.31;;
43385;Laerm;28988;48.042;7.584;2023-07-24T09:25:16;84.33;-36.87;96.21;;
43385;Laerm;28988;48.042;7.584;2023-07-24T09:27:42;86.24;-46.21;96.83;;
43385;Laerm;28988;48.042;7.584;2023-07-24T09:30:13;90.72;-31.19;96.82;;
43385;Laerm;28988;48.042;7.584;2023-07-24T09:32:39;88.71;-45.28;96.83;;
43385;Laerm;28988;48.042;7.584;2023-07-24T09:35:15;80.37;-40.35;91.97;;
43385;Laerm;28988;48.042;7.584;2023-07-24T09:37:40;79.00;-48.95;90.48;;
43385;Laerm;28988;48.042;7.584;2023-07-24T09:40:05;78.38;-48.95;89.10;;
43385;Laerm;28988;48.042;7.584;2023-07-24T09:42:31;78.34;-54.94;88.74;;
43385;Laerm;28988;48.042;7.584;2023-07-24T09:44:57;78.46;-73.34;88.92;;
43385;Laerm;28988;48.042;7.584;2023-07-24T09:47:22;78.35;-36.49;88.42;;
43385;Laerm;28988;48.042;7.584;2023-07-24T09:49:47;78.35;-39.51;88.55;;
43385;Laerm;28988;48.042;7.584;2023-07-24T09:52:12;78.32;-73.34;88.64;;
43385;Laerm;28988;48.042;7.584;2023-07-24T09:54:42;78.34;-36.71;89.03;;
43385;Laerm;28988;48.042;7.584;2023-07-24T09:57:12;78.65;-37.23;89.01;;
43385;Laerm;28988;48.042;7.584;2023-07-24T09:59:38;79.28;-45.88;91.66;;
43385;Laerm;28988;48.042;7.584;2023-07-24T10:02:04;80.40;-34.81;91.93;;
43385;Laerm;28988;48.042;7.584;2023-07-24T10:04:29;82.87;-57.64;95.82;;
43385;Laerm;28988;48.042;7.584;2023-07-24T10:06:54;81.61;-32.93;93.20;;
43385;Laerm;28988;48.042;7.584;2023-07-24T10:09:20;81.19;-33.94;92.20;;
43385;Laerm;28988;48.042;7.584;2023-07-24T10:11:47;81.78;-42.78;92.80;;
43385;Laerm;28988;48.042;7.584;2023-07-24T10:14:13;81.22;-30.40;94.43;;
43385;Laerm;28988;48.042;7.584;2023-07-24T10:16:38;79.91;-48.84;90.49;;
43385;Laerm;28988;48.042;7.584;2023-07-24T10:19:12;79.40;-40.28;89.88;;
43385;Laerm;28988;48.042;7.584;2023-07-24T10:21:37;79.28;-61.61;89.33;;
43385;Laerm;28988;48.042;7.584;2023-07-24T10:24:02;79.30;-43.56;90.16;;
43385;Laerm;28988;48.042;7.584;2023-07-24T10:26:27;78.88;-61.57;89.16;;
43385;Laerm;28988;48.042;7.584;2023-07-24T10:28:53;78.41;-54.27;89.08;;
43385;Laerm;28988;48.042;7.584;2023-07-24T10:31:19;78.43;-54.27;89.80;;
43385;Laerm;28988;48.042;7.584;2023-07-24T10:33:45;78.44;-48.95;89.69;;
43385;Laerm;28988;48.042;7.584;2023-07-24T10:36:11;79.47;-65.35;90.57;;
43385;Laerm;28988;48.042;7.584;2023-07-24T10:38:42;83.36;-40.30;95.71;;
43385;Laerm;28988;48.042;7.584;2023-07-24T10:41:08;89.95;-48.14;98.43;;
43385;Laerm;28988;48.042;7.584;2023-07-24T10:46:08;85.79;-42.15;97.83;;
43385;Laerm;28988;48.042;7.584;2023-07-24T10:48:34;84.15;-31.77;93.75;;
43385;Laerm;28988;48.042;7.584;2023-07-24T10:51:05;84.14;-22.68;93.68;;
43385;Laerm;28988;48.042;7.584;2023-07-24T10:53:30;84.14;-20.71;93.24;;
43385;Laerm;28988;48.042;7.584;2023-07-24T10:55:55;84.14;-20.71;93.73;;
43385;Laerm;28988;48.042;7.584;2023-07-24T10:58:21;84.13;-33.10;93.57;;
43385;Laerm;28988;48.042;7.584;2023-07-24T11:00:49;84.14;-22.57;93.64;;
43385;Laerm;28988;48.042;7.584;2023-07-24T11:03:14;84.13;-22.68;93.13;;
43385;Laerm;28988;48.042;7.584;2023-07-24T11:05:44;84.14;-24.69;93.54;;
43385;Laerm;28988;48.042;7.584;2023-07-24T11:08:13;84.15;-46.30;93.17;;
43385;Laerm;28988;48.042;7.584;2023-07-24T11:10:48;84.18;-36.59;93.69;;
43385;Laerm;28988;48.042;7.584;2023-07-24T11:13:14;84.19;-34.98;93.87;;
43385;Laerm;28988;48.042;7.584;2023-07-24T11:15:39;84.21;-46.30;93.75;;
43385;Laerm;28988;48.042;7.584;2023-07-24T11:18:04;84.20;-32.68;93.75;;
43385;Laerm;28988;48.042;7.584;2023-07-24T11:20:33;84.14;-31.66;93.40;;
43385;Laerm;28988;48.042;7.584;2023-07-24T11:22:58;84.14;-22.68;92.89;;
43385;Laerm;28988;48.042;7.584;2023-07-24T11:25:23;84.16;-28.29;93.18;;
43385;Laerm;28988;48.042;7.584;2023-07-24T11:27:49;84.17;-57.68;93.98;;
43385;Laerm;28988;48.042;7.584;2023-07-24T11:30:18;84.17;-57.68;94.15;;
43385;Laerm;28988;48.042;7.584;2023-07-24T11:32:44;84.17;-57.68;93.42;;
43385;Laerm;28988;48.042;7.584;2023-07-24T11:35:09;84.17;-57.68;93.51;;
43385;Laerm;28988;48.042;7.584;2023-07-24T11:37:35;84.17;-23.73;94.00;;
43385;Laerm;28988;48.042;7.584;2023-07-24T11:40:02;84.18;-28.29;94.05;;
43385;Laerm;28988;48.042;7.584;2023-07-24T11:42:29;84.18;-33.10;94.21;;
43385;Laerm;28988;48.042;7.584;2023-07-24T11:44:54;84.18;-57.68;94.16;;
43385;Laerm;28988;48.042;7.584;2023-07-24T11:47:21;84.18;-57.68;94.13;;
43385;Laerm;28988;48.042;7.584;2023-07-24T11:49:59;84.18;-57.68;93.86;;
43385;Laerm;28988;48.042;7.584;2023-07-24T11:52:25;84.17;-57.68;93.53;;
43385;Laerm;28988;48.042;7.584;2023-07-24T11:54:56;84.17;-35.75;93.69;;
43385;Laerm;28988;48.042;7.584;2023-07-24T11:57:26;84.16;-57.68;93.82;;
43385;Laerm;28988;48.042;7.584;2023-07-24T11:59:51;84.17;-57.68;93.70;;
43385;Laerm;28988;48.042;7.584;2023-07-24T12:02:18;84.16;-28.29;93.65;;
43385;Laerm;28988;48.042;7.584;2023-07-24T12:04:43;84.17;-57.68;93.59;;
43385;Laerm;28988;48.042;7.584;2023-07-24T12:07:09;84.17;-57.68;94.15;;
43385;Laerm;28988;48.042;7.584;2023-07-24T12:09:34;84.18;-57.68;94.38;;
43385;Laerm;28988;48.042;7.584;2023-07-24T12:11:59;84.18;-33.10;93.96;;
43385;Laerm;28988;48.042;7.584;2023-07-24T12:14:24;84.18;-23.73;94.44;;
43385;Laerm;28988;48.042;7.584;2023-07-24T12:16:58;84.19;-23.73;94.21;;
43385;Laerm;28988;48.042;7.584;2023-07-24T12:19:24;84.19;-57.68;93.70;;
43385;Laerm;28988;48.042;7.584;2023-07-24T12:21:49;84.17;-39.45;93.78;;
43385;Laerm;28988;48.042;7.584;2023-07-24T12:24:14;84.19;-28.29;94.29;;
43385;Laerm;28988;48.042;7.584;2023-07-24T12:26:39;84.19;-28.29;93.78;;
43385;Laerm;28988;48.042;7.584;2023-07-24T12:29:04;84.18;-57.68;94.39;;
43385;Laerm;28988;48.042;7.584;2023-07-24T12:31:30;84.18;-57.68;94.30;;
43385;Laerm;28988;48.042;7.584;2023-07-24T12:33:55;84.17;-28.29;93.62;;
43385;Laerm;28988;48.042;7.584;2023-07-24T12:36:20;84.18;-57.68;93.83;;
43385;Laerm;28988;48.042;7.584;2023-07-24T12:38:45;84.19;-57.68;93.80;;
43385;Laerm;28988;48.042;7.584;2023-07-24T12:41:13;84.19;-33.10;94.66;;
43385;Laerm;28988;48.042;7.584;2023-07-24T12:43:38;84.20;-23.73;94.01;;
43385;Laerm;28988;48.042;7.584;2023-07-24T12:46:03;84.18;-28.33;94.63;;
43385;Laerm;28988;48.042;7.584;2023-07-24T12:48:28;84.19;-57.68;94.42;;
43385;Laerm;28988;48.042;7.584;2023-07-24T12:50:56;84.19;-57.68;93.86;;
43385;Laerm;28988;48.042;7.584;2023-07-24T12:53:22;84.20;-33.66;93.99;;
43385;Laerm;28988;48.042;7.584;2023-07-24T12:55:47;84.21;-33.10;94.56;;
43385;Laerm;28988;48.042;7.584;2023-07-24T12:58:13;84.20;-28.29;94.44;;
43385;Laerm;28988;48.042;7.584;2023-07-24T13:00:38;84.20;-57.68;94.60;;
43385;Laerm;28988;48.042;7.584;2023-07-24T13:03:03;84.20;-57.68;94.52;;
43385;Laerm;28988;48.042;7.584;2023-07-24T13:05:29;84.19;-57.68;94.18;;
43385;Laerm;28988;48.042;7.584;2023-07-24T13:07:55;84.19;-57.68;93.69;;
43385;Laerm;28988;48.042;7.584;2023-07-24T13:10:21;84.18;-58.17;94.01;;
43385;Laerm;28988;48.042;7.584;2023-07-24T13:12:46;84.18;-57.68;93.40;;
43385;Laerm;28988;48.042;7.584;2023-07-24T13:15:11;84.18;-33.10;93.79;;
43385;Laerm;28988;48.042;7.584;2023-07-24T13:17:37;84.18;-38.65;93.69;;
43385;Laerm;28988;48.042;7.584;2023-07-24T13:20:02;84.17;-28.29;93.82;;
43385;Laerm;28988;48.042;7.584;2023-07-24T13:22:27;84.17;-57.68;93.66;;
43385;Laerm;28988;48.042;7.584;2023-07-24T13:24:52;84.15;-57.68;94.12;;
43385;Laerm;28988;48.042;7.584;2023-07-24T13:27:18;84.18;-40.41;93.69;;
43385;Laerm;28988;48.042;7.584;2023-07-24T13:29:43;84.18;-57.68;94.15;;
43385;Laerm;28988;48.042;7.584;2023-07-24T13:32:08;84.17;-57.68;93.84;;